sensor_id;sensor_type;location;lat;lon;timestamp;temperature;humidity
7218;DHT22;3650;53.580;10.094;2023-05-02T00:01:01;13.80;59.20
7218;DHT22;3650;53.580;10.094;2023-05-02T00:03:29;13.80;60.60
7218;DHT22;3650;53.580;10.094;2023-05-02T00:05:57;13.70;61.90
7218;DHT22;3650;53.580;10.094;2023-05-02T00:08:24;13.70;63.60
7218;DHT22;3650;53.580;10.094;2023-05-02T00:10:52;13.70;64.90
7218;DHT22;3650;53.580;10.094;2023-05-02T00:13:19;13.70;65.00
7218;DHT22;3650;53.580;10.094;2023-05-02T00:15:45;13.60;66.40
7218;DHT22;3650;53.580;10.094;2023-05-02T00:18:12;13.70;67.70
7218;DHT22;3650;53.580;10.094;2023-05-02T00:20:39;13.60;68.00
7218;DHT22;3650;53.580;10.094;2023-05-02T00:23:06;13.60;68.50
7218;DHT22;3650;53.580;10.094;2023-05-02T00:25:33;13.60;69.40
7218;DHT22;3650;53.580;10.094;2023-05-02T00:28:01;13.60;70.20
7218;DHT22;3650;53.580;10.094;2023-05-02T00:30:28;13.60;71.20
7218;DHT22;3650;53.580;10.094;2023-05-02T00:32:55;13.60;71.50
7218;DHT22;3650;53.580;10.094;2023-05-02T00:35:22;13.60;71.80
7218;DHT22;3650;53.580;10.094;2023-05-02T00:37:48;13.60;72.50
7218;DHT22;3650;53.580;10.094;2023-05-02T00:40:15;13.60;73.80
7218;DHT22;3650;53.580;10.094;2023-05-02T00:42:42;13.60;74.30
7218;DHT22;3650;53.580;10.094;2023-05-02T00:45:10;13.60;75.00
7218;DHT22;3650;53.580;10.094;2023-05-02T00:47:37;13.60;75.60
7218;DHT22;3650;53.580;10.094;2023-05-02T00:50:05;13.60;76.50
7218;DHT22;3650;53.580;10.094;2023-05-02T00:52:32;13.50;76.90
7218;DHT22;3650;53.580;10.094;2023-05-02T00:55:00;13.50;77.90
7218;DHT22;3650;53.580;10.094;2023-05-02T00:57:28;13.50;78.40
7218;DHT22;3650;53.580;10.094;2023-05-02T00:59:55;13.50;79.00
7218;DHT22;3650;53.580;10.094;2023-05-02T01:02:31;13.50;79.50
7218;DHT22;3650;53.580;10.094;2023-05-02T01:05:04;13.50;80.60
7218;DHT22;3650;53.580;10.094;2023-05-02T01:10:46;13.50;81.80
7218;DHT22;3650;53.580;10.094;2023-05-02T01:13:19;13.50;82.70
7218;DHT22;3650;53.580;10.094;2023-05-02T01:15:47;13.40;83.50
7218;DHT22;3650;53.580;10.094;2023-05-02T01:18:21;13.40;84.60
7218;DHT22;3650;53.580;10.094;2023-05-02T01:20:52;13.40;85.00
7218;DHT22;3650;53.580;10.094;2023-05-02T01:23:30;13.40;85.80
7218;DHT22;3650;53.580;10.094;2023-05-02T01:26:05;13.40;86.60
7218;DHT22;3650;53.580;10.094;2023-05-02T01:28:44;13.40;87.30
7218;DHT22;3650;53.580;10.094;2023-05-02T01:31:13;13.40;88.30
7218;DHT22;3650;53.580;10.094;2023-05-02T01:33:42;13.30;89.40
7218;DHT22;3650;53.580;10.094;2023-05-02T01:36:11;13.30;90.20
7218;DHT22;3650;53.580;10.094;2023-05-02T01:38:40;13.30;90.70
7218;DHT22;3650;53.580;10.094;2023-05-02T01:41:08;13.30;91.10
7218;DHT22;3650;53.580;10.094;2023-05-02T01:43:36;13.30;91.20
7218;DHT22;3650;53.580;10.094;2023-05-02T01:46:08;13.30;91.20
7218;DHT22;3650;53.580;10.094;2023-05-02T01:48:36;13.30;91.20
7218;DHT22;3650;53.580;10.094;2023-05-02T01:51:04;13.30;91.40
7218;DHT22;3650;53.580;10.094;2023-05-02T01:53:33;13.30;91.60
7218;DHT22;3650;53.580;10.094;2023-05-02T01:56:02;13.30;91.70
7218;DHT22;3650;53.580;10.094;2023-05-02T01:58:29;13.20;91.80
7218;DHT22;3650;53.580;10.094;2023-05-02T02:00:59;13.20;92.10
7218;DHT22;3650;53.580;10.094;2023-05-02T02:03:29;13.20;92.40
7218;DHT22;3650;53.580;10.094;2023-05-02T02:05:57;13.20;92.50
7218;DHT22;3650;53.580;10.094;2023-05-02T02:08:25;13.20;92.60
7218;DHT22;3650;53.580;10.094;2023-05-02T02:10:56;13.10;93.00
7218;DHT22;3650;53.580;10.094;2023-05-02T02:13:27;13.10;93.60
7218;DHT22;3650;53.580;10.094;2023-05-02T02:15:59;13.10;93.60
7218;DHT22;3650;53.580;10.094;2023-05-02T02:18:29;13.10;93.80
7218;DHT22;3650;53.580;10.094;2023-05-02T02:20:58;13.10;94.00
7218;DHT22;3650;53.580;10.094;2023-05-02T02:23:27;13.10;94.20
7218;DHT22;3650;53.580;10.094;2023-05-02T02:25:55;13.10;94.30
7218;DHT22;3650;53.580;10.094;2023-05-02T02:28:22;13.10;94.30
7218;DHT22;3650;53.580;10.094;2023-05-02T02:30:49;13.10;94.40
7218;DHT22;3650;53.580;10.094;2023-05-02T02:33:17;13.10;94.50
7218;DHT22;3650;53.580;10.094;2023-05-02T02:35:49;13.00;94.50
7218;DHT22;3650;53.580;10.094;2023-05-02T02:38:25;13.00;94.10
7218;DHT22;3650;53.580;10.094;2023-05-02T02:40:56;13.00;93.80
7218;DHT22;3650;53.580;10.094;2023-05-02T02:43:32;13.00;93.50
7218;DHT22;3650;53.580;10.094;2023-05-02T02:46:09;13.00;93.30
7218;DHT22;3650;53.580;10.094;2023-05-02T02:48:45;13.00;93.10
7218;DHT22;3650;53.580;10.094;2023-05-02T02:51:24;12.90;93.40
7218;DHT22;3650;53.580;10.094;2023-05-02T02:53:59;12.90;93.10
7218;DHT22;3650;53.580;10.094;2023-05-02T02:56:29;12.90;93.10
7218;DHT22;3650;53.580;10.094;2023-05-02T02:59:04;12.80;93.30
7218;DHT22;3650;53.580;10.094;2023-05-02T03:01:32;12.80;93.30
7218;DHT22;3650;53.580;10.094;2023-05-02T03:04:01;12.70;93.30
7218;DHT22;3650;53.580;10.094;2023-05-02T03:06:31;12.70;93.30
7218;DHT22;3650;53.580;10.094;2023-05-02T03:08:58;12.70;92.60
7218;DHT22;3650;53.580;10.094;2023-05-02T03:11:26;12.50;90.10
7218;DHT22;3650;53.580;10.094;2023-05-02T03:13:52;12.40;87.80
7218;DHT22;3650;53.580;10.094;2023-05-02T03:16:30;12.30;86.30
7218;DHT22;3650;53.580;10.094;2023-05-02T03:18:58;12.20;86.20
7218;DHT22;3650;53.580;10.094;2023-05-02T03:21:25;12.20;86.20
7218;DHT22;3650;53.580;10.094;2023-05-02T03:23:53;12.10;86.10
7218;DHT22;3650;53.580;10.094;2023-05-02T03:26:19;12.00;86.00
7218;DHT22;3650;53.580;10.094;2023-05-02T03:28:46;12.00;86.70
7218;DHT22;3650;53.580;10.094;2023-05-02T03:31:14;11.90;85.60
7218;DHT22;3650;53.580;10.094;2023-05-02T03:33:41;11.80;83.50
7218;DHT22;3650;53.580;10.094;2023-05-02T03:36:08;11.70;80.00
7218;DHT22;3650;53.580;10.094;2023-05-02T03:38:35;11.50;77.30
7218;DHT22;3650;53.580;10.094;2023-05-02T03:41:03;11.50;76.50
7218;DHT22;3650;53.580;10.094;2023-05-02T03:43:30;11.40;76.20
7218;DHT22;3650;53.580;10.094;2023-05-02T03:46:03;11.30;74.70
7218;DHT22;3650;53.580;10.094;2023-05-02T03:48:30;11.20;74.40
7218;DHT22;3650;53.580;10.094;2023-05-02T03:50:57;11.10;72.60
7218;DHT22;3650;53.580;10.094;2023-05-02T03:53:24;11.00;73.90
7218;DHT22;3650;53.580;10.094;2023-05-02T03:55:51;11.00;73.70
7218;DHT22;3650;53.580;10.094;2023-05-02T03:58:19;10.90;73.50
7218;DHT22;3650;53.580;10.094;2023-05-02T04:00:46;10.90;73.10
7218;DHT22;3650;53.580;10.094;2023-05-02T04:03:13;10.80;72.50
7218;DHT22;3650;53.580;10.094;2023-05-02T04:05:40;10.80;72.00
7218;DHT22;3650;53.580;10.094;2023-05-02T04:08:07;10.70;73.10
7218;DHT22;3650;53.580;10.094;2023-05-02T04:10:34;10.70;73.60
7218;DHT22;3650;53.580;10.094;2023-05-02T04:13:01;10.70;74.00
7218;DHT22;3650;53.580;10.094;2023-05-02T04:15:29;10.60;73.20
7218;DHT22;3650;53.580;10.094;2023-05-02T04:17:57;10.60;72.20
7218;DHT22;3650;53.580;10.094;2023-05-02T04:20:24;10.60;71.10
7218;DHT22;3650;53.580;10.094;2023-05-02T04:22:51;10.60;71.10
7218;DHT22;3650;53.580;10.094;2023-05-02T04:25:18;10.60;70.40
7218;DHT22;3650;53.580;10.094;2023-05-02T04:27:44;10.50;70.50
7218;DHT22;3650;53.580;10.094;2023-05-02T04:30:11;10.60;70.80
7218;DHT22;3650;53.580;10.094;2023-05-02T04:32:40;10.50;70.60
7218;DHT22;3650;53.580;10.094;2023-05-02T04:35:08;10.50;70.70
7218;DHT22;3650;53.580;10.094;2023-05-02T04:37:35;10.50;70.60
7218;DHT22;3650;53.580;10.094;2023-05-02T04:40:02;10.50;71.00
7218;DHT22;3650;53.580;10.094;2023-05-02T04:42:29;10.50;69.70
7218;DHT22;3650;53.580;10.094;2023-05-02T04:44:56;10.50;69.30
7218;DHT22;3650;53.580;10.094;2023-05-02T04:47:23;10.50;68.30
7218;DHT22;3650;53.580;10.094;2023-05-02T04:49:51;10.50;68.00
7218;DHT22;3650;53.580;10.094;2023-05-02T04:52:18;10.50;67.90
7218;DHT22;3650;53.580;10.094;2023-05-02T04:54:44;10.50;65.40
7218;DHT22;3650;53.580;10.094;2023-05-02T04:57:11;10.50;65.10
7218;DHT22;3650;53.580;10.094;2023-05-02T04:59:38;10.40;64.20
7218;DHT22;3650;53.580;10.094;2023-05-02T05:02:05;10.40;63.90
7218;DHT22;3650;53.580;10.094;2023-05-02T05:04:32;10.40;62.70
7218;DHT22;3650;53.580;10.094;2023-05-02T05:07:00;10.40;62.10
7218;DHT22;3650;53.580;10.094;2023-05-02T05:09:27;10.40;62.00
7218;DHT22;3650;53.580;10.094;2023-05-02T05:11:54;10.40;62.70
7218;DHT22;3650;53.580;10.094;2023-05-02T05:14:20;10.30;62.30
7218;DHT22;3650;53.580;10.094;2023-05-02T05:16:48;10.30;62.60
7218;DHT22;3650;53.580;10.094;2023-05-02T05:19:15;10.40;62.60
7218;DHT22;3650;53.580;10.094;2023-05-02T05:21:42;10.40;61.70
7218;DHT22;3650;53.580;10.094;2023-05-02T05:24:10;10.20;58.80
7218;DHT22;3650;53.580;10.094;2023-05-02T05:26:37;10.20;59.00
7218;DHT22;3650;53.580;10.094;2023-05-02T05:29:04;10.20;58.90
7218;DHT22;3650;53.580;10.094;2023-05-02T05:31:32;10.20;59.00
7218;DHT22;3650;53.580;10.094;2023-05-02T05:33:59;10.20;58.10
7218;DHT22;3650;53.580;10.094;2023-05-02T05:36:26;10.20;56.80
7218;DHT22;3650;53.580;10.094;2023-05-02T05:38:53;10.20;55.90
7218;DHT22;3650;53.580;10.094;2023-05-02T05:41:21;10.20;56.20
7218;DHT22;3650;53.580;10.094;2023-05-02T05:43:49;10.20;56.00
7218;DHT22;3650;53.580;10.094;2023-05-02T05:46:15;10.20;56.90
7218;DHT22;3650;53.580;10.094;2023-05-02T05:48:42;10.20;56.10
7218;DHT22;3650;53.580;10.094;2023-05-02T05:51:09;10.20;54.20
7218;DHT22;3650;53.580;10.094;2023-05-02T05:53:36;10.20;52.80
7218;DHT22;3650;53.580;10.094;2023-05-02T05:56:09;10.20;52.50
7218;DHT22;3650;53.580;10.094;2023-05-02T05:58:38;10.20;53.00
7218;DHT22;3650;53.580;10.094;2023-05-02T06:01:05;10.10;51.50
7218;DHT22;3650;53.580;10.094;2023-05-02T06:03:32;10.10;50.90
7218;DHT22;3650;53.580;10.094;2023-05-02T06:05:59;10.10;50.70
7218;DHT22;3650;53.580;10.094;2023-05-02T06:08:25;10.00;51.50
7218;DHT22;3650;53.580;10.094;2023-05-02T06:10:52;10.10;51.80
7218;DHT22;3650;53.580;10.094;2023-05-02T06:13:19;10.00;51.20
7218;DHT22;3650;53.580;10.094;2023-05-02T06:15:47;10.00;50.10
7218;DHT22;3650;53.580;10.094;2023-05-02T06:18:14;10.00;50.20
7218;DHT22;3650;53.580;10.094;2023-05-02T06:20:41;10.00;50.10
7218;DHT22;3650;53.580;10.094;2023-05-02T06:23:07;10.00;50.50
7218;DHT22;3650;53.580;10.094;2023-05-02T06:25:37;10.00;50.30
7218;DHT22;3650;53.580;10.094;2023-05-02T06:28:03;10.00;49.10
7218;DHT22;3650;53.580;10.094;2023-05-02T06:30:30;10.00;49.60
7218;DHT22;3650;53.580;10.094;2023-05-02T06:32:58;10.00;49.10
7218;DHT22;3650;53.580;10.094;2023-05-02T06:35:25;10.00;49.10
7218;DHT22;3650;53.580;10.094;2023-05-02T06:37:52;10.00;49.40
7218;DHT22;3650;53.580;10.094;2023-05-02T06:40:19;10.00;46.80
7218;DHT22;3650;53.580;10.094;2023-05-02T06:42:46;10.00;47.20
7218;DHT22;3650;53.580;10.094;2023-05-02T06:45:12;10.00;47.00
7218;DHT22;3650;53.580;10.094;2023-05-02T06:47:39;10.00;46.50
7218;DHT22;3650;53.580;10.094;2023-05-02T06:50:09;10.00;47.10
7218;DHT22;3650;53.580;10.094;2023-05-02T06:52:36;10.00;47.40
7218;DHT22;3650;53.580;10.094;2023-05-02T06:55:03;10.00;46.50
7218;DHT22;3650;53.580;10.094;2023-05-02T06:57:30;10.00;44.90
7218;DHT22;3650;53.580;10.094;2023-05-02T06:59:57;10.00;44.40
7218;DHT22;3650;53.580;10.094;2023-05-02T07:02:23;10.00;43.40
7218;DHT22;3650;53.580;10.094;2023-05-02T07:04:50;10.00;42.70
7218;DHT22;3650;53.580;10.094;2023-05-02T07:07:18;10.00;43.40
7218;DHT22;3650;53.580;10.094;2023-05-02T07:09:46;10.00;43.50
7218;DHT22;3650;53.580;10.094;2023-05-02T07:12:13;10.00;43.00
7218;DHT22;3650;53.580;10.094;2023-05-02T07:14:40;10.00;43.40
7218;DHT22;3650;53.580;10.094;2023-05-02T07:17:07;10.00;42.80
7218;DHT22;3650;53.580;10.094;2023-05-02T07:19:34;10.00;44.10
7218;DHT22;3650;53.580;10.094;2023-05-02T07:22:01;10.00;43.50
7218;DHT22;3650;53.580;10.094;2023-05-02T07:24:29;10.00;42.80
7218;DHT22;3650;53.580;10.094;2023-05-02T07:26:56;10.00;42.00
7218;DHT22;3650;53.580;10.094;2023-05-02T07:29:22;10.10;41.90
7218;DHT22;3650;53.580;10.094;2023-05-02T07:31:49;10.00;40.30
7218;DHT22;3650;53.580;10.094;2023-05-02T07:34:16;10.10;40.10
7218;DHT22;3650;53.580;10.094;2023-05-02T07:36:43;10.10;39.70
7218;DHT22;3650;53.580;10.094;2023-05-02T07:39:10;10.10;39.90
7218;DHT22;3650;53.580;10.094;2023-05-02T07:41:38;10.10;39.10
7218;DHT22;3650;53.580;10.094;2023-05-02T07:44:04;10.10;38.70
7218;DHT22;3650;53.580;10.094;2023-05-02T07:46:31;10.20;38.70
7218;DHT22;3650;53.580;10.094;2023-05-02T07:48:58;10.20;38.70
7218;DHT22;3650;53.580;10.094;2023-05-02T07:51:25;10.20;38.10
7218;DHT22;3650;53.580;10.094;2023-05-02T07:53:52;10.20;37.70
7218;DHT22;3650;53.580;10.094;2023-05-02T07:56:22;10.20;37.40
7218;DHT22;3650;53.580;10.094;2023-05-02T07:58:51;10.20;36.80
7218;DHT22;3650;53.580;10.094;2023-05-02T08:01:18;10.20;36.80
7218;DHT22;3650;53.580;10.094;2023-05-02T08:03:45;10.20;36.70
7218;DHT22;3650;53.580;10.094;2023-05-02T08:06:12;10.20;36.70
7218;DHT22;3650;53.580;10.094;2023-05-02T08:08:39;10.20;36.70
7218;DHT22;3650;53.580;10.094;2023-05-02T08:11:06;10.30;36.40
7218;DHT22;3650;53.580;10.094;2023-05-02T08:13:33;10.30;36.40
7218;DHT22;3650;53.580;10.094;2023-05-02T08:16:01;10.30;36.80
7218;DHT22;3650;53.580;10.094;2023-05-02T08:18:28;10.30;36.80
7218;DHT22;3650;53.580;10.094;2023-05-02T08:20:55;10.30;37.00
7218;DHT22;3650;53.580;10.094;2023-05-02T08:23:23;10.40;36.90
7218;DHT22;3650;53.580;10.094;2023-05-02T08:25:50;10.30;36.80
7218;DHT22;3650;53.580;10.094;2023-05-02T08:28:17;10.30;36.00
7218;DHT22;3650;53.580;10.094;2023-05-02T08:30:44;10.40;36.20
7218;DHT22;3650;53.580;10.094;2023-05-02T08:33:12;10.40;36.00
7218;DHT22;3650;53.580;10.094;2023-05-02T08:35:39;10.40;36.20
7218;DHT22;3650;53.580;10.094;2023-05-02T08:38:06;10.40;36.80
7218;DHT22;3650;53.580;10.094;2023-05-02T08:40:35;10.50;36.90
7218;DHT22;3650;53.580;10.094;2023-05-02T08:43:02;10.50;37.00
7218;DHT22;3650;53.580;10.094;2023-05-02T08:45:31;10.50;37.00
7218;DHT22;3650;53.580;10.094;2023-05-02T08:48:05;10.50;37.00
7218;DHT22;3650;53.580;10.094;2023-05-02T08:50:36;10.60;36.10
7218;DHT22;3650;53.580;10.094;2023-05-02T08:53:04;10.60;36.10
7218;DHT22;3650;53.580;10.094;2023-05-02T08:55:32;10.60;37.10
7218;DHT22;3650;53.580;10.094;2023-05-02T08:57:59;10.70;37.10
7218;DHT22;3650;53.580;10.094;2023-05-02T09:00:28;10.70;35.40
7218;DHT22;3650;53.580;10.094;2023-05-02T09:03:05;10.80;34.90
7218;DHT22;3650;53.580;10.094;2023-05-02T09:05:37;10.70;34.50
7218;DHT22;3650;53.580;10.094;2023-05-02T09:08:05;10.70;35.20
7218;DHT22;3650;53.580;10.094;2023-05-02T09:10:34;10.80;35.20
7218;DHT22;3650;53.580;10.094;2023-05-02T09:13:30;10.80;35.40
7218;DHT22;3650;53.580;10.094;2023-05-02T09:15:57;10.80;35.30
7218;DHT22;3650;53.580;10.094;2023-05-02T09:18:27;10.90;35.30
7218;DHT22;3650;53.580;10.094;2023-05-02T09:20:57;10.90;35.60
7218;DHT22;3650;53.580;10.094;2023-05-02T09:23:35;10.90;34.60
7218;DHT22;3650;53.580;10.094;2023-05-02T09:26:10;10.90;34.30
7218;DHT22;3650;53.580;10.094;2023-05-02T09:28:38;10.90;34.10
7218;DHT22;3650;53.580;10.094;2023-05-02T09:31:06;10.90;34.60
7218;DHT22;3650;53.580;10.094;2023-05-02T09:33:34;11.00;34.80
7218;DHT22;3650;53.580;10.094;2023-05-02T09:36:02;11.00;34.70
7218;DHT22;3650;53.580;10.094;2023-05-02T09:38:29;11.00;34.60
7218;DHT22;3650;53.580;10.094;2023-05-02T09:40:57;11.10;35.60
7218;DHT22;3650;53.580;10.094;2023-05-02T09:43:25;11.10;34.10
7218;DHT22;3650;53.580;10.094;2023-05-02T09:45:56;11.20;34.00
7218;DHT22;3650;53.580;10.094;2023-05-02T09:48:23;11.20;34.10
7218;DHT22;3650;53.580;10.094;2023-05-02T09:50:50;11.30;33.80
7218;DHT22;3650;53.580;10.094;2023-05-02T09:53:18;11.30;34.20
7218;DHT22;3650;53.580;10.094;2023-05-02T09:55:45;11.30;33.60
7218;DHT22;3650;53.580;10.094;2023-05-02T09:58:21;11.40;34.10
7218;DHT22;3650;53.580;10.094;2023-05-02T10:00:49;11.40;34.50
7218;DHT22;3650;53.580;10.094;2023-05-02T10:03:17;11.40;34.10
7218;DHT22;3650;53.580;10.094;2023-05-02T10:05:45;11.50;34.60
7218;DHT22;3650;53.580;10.094;2023-05-02T10:08:13;11.50;35.00
7218;DHT22;3650;53.580;10.094;2023-05-02T10:10:45;11.60;34.30
7218;DHT22;3650;53.580;10.094;2023-05-02T10:13:13;11.60;33.80
7218;DHT22;3650;53.580;10.094;2023-05-02T10:15:43;11.60;33.20
7218;DHT22;3650;53.580;10.094;2023-05-02T10:18:16;11.60;33.10
7218;DHT22;3650;53.580;10.094;2023-05-02T10:20:50;11.60;33.30
7218;DHT22;3650;53.580;10.094;2023-05-02T10:23:20;11.60;33.60
7218;DHT22;3650;53.580;10.094;2023-05-02T10:25:49;11.60;34.50
7218;DHT22;3650;53.580;10.094;2023-05-02T10:28:16;11.60;35.60
7218;DHT22;3650;53.580;10.094;2023-05-02T10:30:44;11.60;35.50
7218;DHT22;3650;53.580;10.094;2023-05-02T10:33:13;11.60;35.90
7218;DHT22;3650;53.580;10.094;2023-05-02T10:35:43;11.60;36.20
7218;DHT22;3650;53.580;10.094;2023-05-02T10:38:10;11.50;36.90
7218;DHT22;3650;53.580;10.094;2023-05-02T10:40:38;11.50;37.30
7218;DHT22;3650;53.580;10.094;2023-05-02T10:43:07;11.50;37.80
7218;DHT22;3650;53.580;10.094;2023-05-02T10:45:39;11.50;37.20
7218;DHT22;3650;53.580;10.094;2023-05-02T10:48:15;11.50;36.60
7218;DHT22;3650;53.580;10.094;2023-05-02T10:50:43;11.60;34.40
7218;DHT22;3650;53.580;10.094;2023-05-02T10:53:28;11.60;34.60
7218;DHT22;3650;53.580;10.094;2023-05-02T10:56:16;11.70;34.00
7218;DHT22;3650;53.580;10.094;2023-05-02T10:58:47;11.70;34.30
7218;DHT22;3650;53.580;10.094;2023-05-02T11:01:34;11.80;34.30
7218;DHT22;3650;53.580;10.094;2023-05-02T11:04:10;11.80;34.20
7218;DHT22;3650;53.580;10.094;2023-05-02T11:07:15;11.80;33.10
7218;DHT22;3650;53.580;10.094;2023-05-02T11:09:42;11.90;33.50
7218;DHT22;3650;53.580;10.094;2023-05-02T11:12:09;11.90;33.50
7218;DHT22;3650;53.580;10.094;2023-05-02T11:14:44;12.00;33.70
7218;DHT22;3650;53.580;10.094;2023-05-02T11:17:15;12.00;33.50
7218;DHT22;3650;53.580;10.094;2023-05-02T11:22:49;12.00;34.50
7218;DHT22;3650;53.580;10.094;2023-05-02T11:28:07;12.00;35.10
7218;DHT22;3650;53.580;10.094;2023-05-02T11:30:43;12.00;35.40
7218;DHT22;3650;53.580;10.094;2023-05-02T11:33:18;12.00;35.80
7218;DHT22;3650;53.580;10.094;2023-05-02T11:35:46;12.00;35.30
7218;DHT22;3650;53.580;10.094;2023-05-02T11:38:19;12.00;34.40
7218;DHT22;3650;53.580;10.094;2023-05-02T11:40:54;12.00;34.50
7218;DHT22;3650;53.580;10.094;2023-05-02T11:43:22;12.00;35.30
7218;DHT22;3650;53.580;10.094;2023-05-02T11:45:51;12.10;34.40
7218;DHT22;3650;53.580;10.094;2023-05-02T11:48:20;12.10;34.40
7218;DHT22;3650;53.580;10.094;2023-05-02T11:50:49;12.20;34.00
7218;DHT22;3650;53.580;10.094;2023-05-02T11:53:17;12.20;34.30
7218;DHT22;3650;53.580;10.094;2023-05-02T11:55:49;12.20;35.40
7218;DHT22;3650;53.580;10.094;2023-05-02T11:58:17;12.20;34.90
7218;DHT22;3650;53.580;10.094;2023-05-02T12:00:45;12.20;35.30
7218;DHT22;3650;53.580;10.094;2023-05-02T12:03:27;12.30;35.90
7218;DHT22;3650;53.580;10.094;2023-05-02T12:05:55;12.30;35.20
7218;DHT22;3650;53.580;10.094;2023-05-02T12:08:24;12.30;34.50
7218;DHT22;3650;53.580;10.094;2023-05-02T12:10:52;12.30;33.80
7218;DHT22;3650;53.580;10.094;2023-05-02T12:13:21;12.30;33.50
7218;DHT22;3650;53.580;10.094;2023-05-02T12:15:49;12.20;34.00
7218;DHT22;3650;53.580;10.094;2023-05-02T12:18:16;12.30;34.00
7218;DHT22;3650;53.580;10.094;2023-05-02T12:20:45;12.30;34.30
7218;DHT22;3650;53.580;10.094;2023-05-02T12:23:12;12.30;33.00
7218;DHT22;3650;53.580;10.094;2023-05-02T12:25:40;12.30;32.60
7218;DHT22;3650;53.580;10.094;2023-05-02T12:28:08;12.30;32.60
7218;DHT22;3650;53.580;10.094;2023-05-02T12:30:35;12.30;31.50
7218;DHT22;3650;53.580;10.094;2023-05-02T12:33:03;12.30;31.50
7218;DHT22;3650;53.580;10.094;2023-05-02T12:35:31;12.30;31.70
7218;DHT22;3650;53.580;10.094;2023-05-02T12:38:10;12.30;32.00
7218;DHT22;3650;53.580;10.094;2023-05-02T12:40:38;12.30;32.30
7218;DHT22;3650;53.580;10.094;2023-05-02T12:43:05;12.20;32.10
7218;DHT22;3650;53.580;10.094;2023-05-02T12:45:35;12.20;32.30
7218;DHT22;3650;53.580;10.094;2023-05-02T12:48:17;12.20;32.50
7218;DHT22;3650;53.580;10.094;2023-05-02T12:50:44;12.20;31.70
7218;DHT22;3650;53.580;10.094;2023-05-02T12:53:12;12.20;31.80
7218;DHT22;3650;53.580;10.094;2023-05-02T12:55:39;12.20;31.00
7218;DHT22;3650;53.580;10.094;2023-05-02T12:58:07;12.20;30.80
7218;DHT22;3650;53.580;10.094;2023-05-02T13:00:36;12.20;31.00
7218;DHT22;3650;53.580;10.094;2023-05-02T13:03:03;12.20;31.50
7218;DHT22;3650;53.580;10.094;2023-05-02T13:05:30;12.20;32.10
7218;DHT22;3650;53.580;10.094;2023-05-02T13:07:57;12.30;32.30
7218;DHT22;3650;53.580;10.094;2023-05-02T13:10:25;12.20;31.70
7218;DHT22;3650;53.580;10.094;2023-05-02T13:12:53;12.20;31.90
7218;DHT22;3650;53.580;10.094;2023-05-02T13:15:20;12.20;32.00
7218;DHT22;3650;53.580;10.094;2023-05-02T13:17:49;12.20;31.60
7218;DHT22;3650;53.580;10.094;2023-05-02T13:20:16;12.10;32.20
7218;DHT22;3650;53.580;10.094;2023-05-02T13:22:43;12.00;31.90
7218;DHT22;3650;53.580;10.094;2023-05-02T13:25:10;12.00;32.00
7218;DHT22;3650;53.580;10.094;2023-05-02T13:27:38;12.00;32.00
7218;DHT22;3650;53.580;10.094;2023-05-02T13:30:07;12.00;32.30
7218;DHT22;3650;53.580;10.094;2023-05-02T13:32:35;12.00;33.00
7218;DHT22;3650;53.580;10.094;2023-05-02T13:35:01;12.10;32.80
7218;DHT22;3650;53.580;10.094;2023-05-02T13:37:29;12.10;32.50
7218;DHT22;3650;53.580;10.094;2023-05-02T13:39:56;12.10;32.20
7218;DHT22;3650;53.580;10.094;2023-05-02T13:42:22;12.10;32.60
7218;DHT22;3650;53.580;10.094;2023-05-02T13:44:51;12.20;32.80
7218;DHT22;3650;53.580;10.094;2023-05-02T13:47:17;12.20;33.00
7218;DHT22;3650;53.580;10.094;2023-05-02T13:49:46;12.20;31.70
7218;DHT22;3650;53.580;10.094;2023-05-02T13:52:12;12.20;31.50
7218;DHT22;3650;53.580;10.094;2023-05-02T13:54:39;12.20;31.00
7218;DHT22;3650;53.580;10.094;2023-05-02T13:57:06;12.30;31.30
7218;DHT22;3650;53.580;10.094;2023-05-02T13:59:33;12.20;30.90
7218;DHT22;3650;53.580;10.094;2023-05-02T14:02:01;12.20;31.20
7218;DHT22;3650;53.580;10.094;2023-05-02T14:04:27;12.20;31.60
7218;DHT22;3650;53.580;10.094;2023-05-02T14:06:54;12.20;32.20
7218;DHT22;3650;53.580;10.094;2023-05-02T14:09:21;12.20;32.40
7218;DHT22;3650;53.580;10.094;2023-05-02T14:11:48;12.10;33.10
7218;DHT22;3650;53.580;10.094;2023-05-02T14:14:15;12.10;33.10
7218;DHT22;3650;53.580;10.094;2023-05-02T14:16:42;12.00;33.10
7218;DHT22;3650;53.580;10.094;2023-05-02T14:19:10;12.00;33.10
7218;DHT22;3650;53.580;10.094;2023-05-02T14:21:36;12.00;33.40
7218;DHT22;3650;53.580;10.094;2023-05-02T14:24:04;12.00;33.20
7218;DHT22;3650;53.580;10.094;2023-05-02T14:26:31;12.00;33.50
7218;DHT22;3650;53.580;10.094;2023-05-02T14:28:59;12.00;32.10
7218;DHT22;3650;53.580;10.094;2023-05-02T14:31:27;12.00;32.60
7218;DHT22;3650;53.580;10.094;2023-05-02T14:33:54;11.90;32.00
7218;DHT22;3650;53.580;10.094;2023-05-02T14:36:22;12.00;32.20
7218;DHT22;3650;53.580;10.094;2023-05-02T14:38:48;12.00;32.60
7218;DHT22;3650;53.580;10.094;2023-05-02T14:41:15;12.00;32.80
7218;DHT22;3650;53.580;10.094;2023-05-02T14:43:42;12.00;33.00
7218;DHT22;3650;53.580;10.094;2023-05-02T14:46:09;11.90;32.60
7218;DHT22;3650;53.580;10.094;2023-05-02T14:48:36;11.90;32.90
7218;DHT22;3650;53.580;10.094;2023-05-02T14:51:03;11.90;33.10
7218;DHT22;3650;53.580;10.094;2023-05-02T14:53:32;11.90;33.00
7218;DHT22;3650;53.580;10.094;2023-05-02T14:55:59;12.00;33.10
7218;DHT22;3650;53.580;10.094;2023-05-02T14:58:25;12.00;33.30
7218;DHT22;3650;53.580;10.094;2023-05-02T15:00:52;12.00;32.20
7218;DHT22;3650;53.580;10.094;2023-05-02T15:03:19;12.10;32.50
7218;DHT22;3650;53.580;10.094;2023-05-02T15:05:46;12.10;32.80
7218;DHT22;3650;53.580;10.094;2023-05-02T15:08:13;12.10;33.30
7218;DHT22;3650;53.580;10.094;2023-05-02T15:10:41;12.20;32.90
7218;DHT22;3650;53.580;10.094;2023-05-02T15:13:07;12.20;32.40
7218;DHT22;3650;53.580;10.094;2023-05-02T15:15:34;12.30;31.60
7218;DHT22;3650;53.580;10.094;2023-05-02T15:18:02;12.30;31.20
7218;DHT22;3650;53.580;10.094;2023-05-02T15:20:29;12.30;30.10
7218;DHT22;3650;53.580;10.094;2023-05-02T15:22:55;12.30;30.80
7218;DHT22;3650;53.580;10.094;2023-05-02T15:25:23;12.30;30.80
7218;DHT22;3650;53.580;10.094;2023-05-02T15:27:51;12.30;30.70
7218;DHT22;3650;53.580;10.094;2023-05-02T15:30:18;12.30;31.00
7218;DHT22;3650;53.580;10.094;2023-05-02T15:32:45;12.30;30.90
7218;DHT22;3650;53.580;10.094;2023-05-02T15:35:12;12.20;31.00
7218;DHT22;3650;53.580;10.094;2023-05-02T15:37:38;12.30;31.10
7218;DHT22;3650;53.580;10.094;2023-05-02T15:40:06;12.30;30.50
7218;DHT22;3650;53.580;10.094;2023-05-02T15:42:36;12.30;30.80
7218;DHT22;3650;53.580;10.094;2023-05-02T15:45:05;12.40;31.50
7218;DHT22;3650;53.580;10.094;2023-05-02T15:47:33;12.40;31.80
7218;DHT22;3650;53.580;10.094;2023-05-02T15:49:59;12.40;32.10
7218;DHT22;3650;53.580;10.094;2023-05-02T15:52:26;12.50;31.80
7218;DHT22;3650;53.580;10.094;2023-05-02T15:54:53;12.50;32.10
7218;DHT22;3650;53.580;10.094;2023-05-02T15:57:20;12.50;31.30
7218;DHT22;3650;53.580;10.094;2023-05-02T15:59:47;12.50;31.40
7218;DHT22;3650;53.580;10.094;2023-05-02T16:02:15;12.50;31.20